aviador You're here:

EYPA Decoded Metar

PALANGA INTL in LITHUANIA
Report Time2018-07-22 13:50:00
UTC Time2018-07-22 14:13:56
Flight Rules vfr VFR
WindVRB at 06 kt
Visibility9999 m
Phenomena:N/A
Clouds:N/A
Expected CloudBase > 2,400 ft AGL from Temp-Dew spread
CeilingNone
Temp23°C (ISA +8)
Dew Point17°C (69% RH)
QNH1011 hPa
Density Alt1,296 ft
Elevation33 ft
Report Wrong Elevation
Raw Report
EYPA 221350Z VRB06KT CAVOK 23/17 Q1011=

Extra information for EYPA:More info

Metar Taf Metar & Taf Last 4 Metars F.Rules Stats Wind Profile Meteogram Temp Stats Airport Information Weather charts Add Link Nearby VenuesMetar ALERT Operation Metar Decoded Social comments